createdAt,value
2022-09-11T00:00:30.764Z,1014.24
2022-09-11T00:01:30.775Z,1014.24
2022-09-11T00:02:30.818Z,1014.25
2022-09-11T00:03:30.729Z,1014.28
2022-09-11T00:04:30.759Z,1014.26
2022-09-11T00:05:30.705Z,1014.28
2022-09-11T00:06:30.785Z,1014.27
2022-09-11T00:07:30.673Z,1014.27
2022-09-11T00:08:30.665Z,1014.26
2022-09-11T00:09:30.654Z,1014.22
2022-09-11T00:10:30.637Z,1014.23
2022-09-11T00:11:30.614Z,1014.22
2022-09-11T00:12:30.618Z,1014.15
2022-09-11T00:13:30.621Z,1014.20
2022-09-11T00:14:30.570Z,1014.17
2022-09-11T00:15:30.566Z,1014.19
2022-09-11T00:16:30.597Z,1014.22
2022-09-11T00:17:30.567Z,1014.21
2022-09-11T00:18:30.523Z,1014.22
2022-09-11T00:19:30.526Z,1014.27
2022-09-11T00:20:30.507Z,1014.27
2022-09-11T00:21:30.501Z,1014.27
2022-09-11T00:22:30.471Z,1014.28
2022-09-11T00:23:30.458Z,1014.29
2022-09-11T00:24:30.464Z,1014.29
2022-09-11T00:25:30.428Z,1014.34
2022-09-11T00:26:30.422Z,1014.36
2022-09-11T00:27:30.464Z,1014.38
2022-09-11T00:28:30.393Z,1014.37
2022-09-11T00:29:30.371Z,1014.39
2022-09-11T00:30:30.395Z,1014.38
2022-09-11T00:31:30.511Z,1014.38
2022-09-11T00:32:30.331Z,1014.42
2022-09-11T00:33:30.322Z,1014.44
2022-09-11T00:34:30.336Z,1014.43
2022-09-11T00:35:30.292Z,1014.42
2022-09-11T00:36:30.296Z,1014.40
2022-09-11T00:37:30.272Z,1014.39
2022-09-11T00:38:30.271Z,1014.40
2022-09-11T00:39:30.236Z,1014.40
2022-09-11T00:40:30.208Z,1014.44
2022-09-11T00:41:30.207Z,1014.44
2022-09-11T00:42:30.219Z,1014.46
2022-09-11T00:43:30.170Z,1014.50
2022-09-11T00:44:30.174Z,1014.50
2022-09-11T00:45:30.206Z,1014.49
2022-09-11T00:46:30.136Z,1014.54
2022-09-11T00:47:30.188Z,1014.51
2022-09-11T00:48:30.152Z,1014.51
2022-09-11T00:49:30.107Z,1014.52
2022-09-11T00:50:30.086Z,1014.52
2022-09-11T00:51:30.085Z,1014.55
2022-09-11T00:52:30.081Z,1014.56
2022-09-11T00:53:30.075Z,1014.55
2022-09-11T00:54:30.068Z,1014.55
2022-09-11T00:55:30.022Z,1014.60
2022-09-11T00:56:30.023Z,1014.59
2022-09-11T00:57:30.023Z,1014.60
2022-09-11T00:58:29.990Z,1014.60
2022-09-11T00:59:29.976Z,1014.64
2022-09-11T01:00:30.142Z,1014.62
2022-09-11T01:01:29.947Z,1014.65
2022-09-11T01:02:29.939Z,1014.67
2022-09-11T01:03:29.921Z,1014.67
2022-09-11T01:04:29.938Z,1014.63
2022-09-11T01:05:29.898Z,1014.69
2022-09-11T01:06:29.884Z,1014.67
2022-09-11T01:07:29.866Z,1014.68
2022-09-11T01:08:29.851Z,1014.67
2022-09-11T01:09:29.830Z,1014.66
2022-09-11T01:10:29.833Z,1014.69
2022-09-11T01:11:29.820Z,1014.70
2022-09-11T01:12:29.811Z,1014.67
2022-09-11T01:13:29.776Z,1014.72
2022-09-11T01:14:33.766Z,1014.73
2022-09-11T01:15:29.778Z,1014.74
2022-09-11T01:16:29.830Z,1014.78
2022-09-11T01:17:29.740Z,1014.76
2022-09-11T01:18:29.712Z,1014.77
2022-09-11T01:19:29.696Z,1014.76
2022-09-11T01:20:29.706Z,1014.76
2022-09-11T01:21:33.925Z,1014.80
2022-09-11T01:22:29.645Z,1014.80
2022-09-11T01:23:29.647Z,1014.82
2022-09-11T01:24:29.639Z,1014.80
2022-09-11T01:25:29.610Z,1014.83
2022-09-11T01:26:29.636Z,1014.83
2022-09-11T01:27:29.594Z,1014.82
2022-09-11T01:28:29.574Z,1014.84
2022-09-11T01:29:29.556Z,1014.87
2022-09-11T01:30:29.552Z,1014.88
2022-09-11T01:31:29.574Z,1014.88
2022-09-11T01:32:29.513Z,1014.89
2022-09-11T01:33:29.508Z,1014.91
2022-09-11T01:34:29.503Z,1014.90
2022-09-11T01:35:29.478Z,1014.92
2022-09-11T01:36:29.483Z,1014.91
2022-09-11T01:37:29.599Z,1014.90
2022-09-11T01:38:29.449Z,1014.92
2022-09-11T01:39:29.434Z,1014.92
2022-09-11T01:40:29.405Z,1014.96
2022-09-11T01:41:29.393Z,1014.98
2022-09-11T01:42:29.386Z,1014.98
2022-09-11T01:43:29.380Z,1015.00
2022-09-11T01:44:29.377Z,1014.98
2022-09-11T01:45:29.377Z,1014.97
2022-09-11T01:46:29.349Z,1015.03
2022-09-11T01:47:29.334Z,1015.00
2022-09-11T01:48:29.305Z,1014.99
2022-09-11T01:49:29.382Z,1015.00
2022-09-11T01:50:29.265Z,1015.00
2022-09-11T01:51:29.287Z,1015.01
2022-09-11T01:52:29.285Z,1015.01
2022-09-11T01:53:29.262Z,1015.02
2022-09-11T01:54:29.237Z,1015.09
2022-09-11T01:55:29.205Z,1015.05
2022-09-11T01:56:29.206Z,1015.07
2022-09-11T01:57:29.170Z,1015.07
2022-09-11T01:58:29.215Z,1015.09
2022-09-11T01:59:29.149Z,1015.08
2022-09-11T02:00:29.196Z,1015.08
2022-09-11T02:01:29.136Z,1015.08
2022-09-11T02:02:29.145Z,1015.04
2022-09-11T02:03:29.099Z,1015.03
2022-09-11T02:04:29.073Z,1015.04
2022-09-11T02:05:29.081Z,1015.03
2022-09-11T02:06:29.056Z,1015.02
2022-09-11T02:07:29.030Z,1015.02
2022-09-11T02:08:29.065Z,1015.05
2022-09-11T02:09:29.018Z,1015.00
2022-09-11T02:10:28.994Z,1015.03
2022-09-11T02:11:28.982Z,1015.03
2022-09-11T02:12:28.976Z,1015.06
2022-09-11T02:13:28.940Z,1015.07
2022-09-11T02:14:28.961Z,1015.08
2022-09-11T02:15:28.918Z,1015.12
2022-09-11T02:16:28.949Z,1015.10
2022-09-11T02:17:28.895Z,1015.10
2022-09-11T02:18:28.890Z,1015.08
2022-09-11T02:19:28.883Z,1015.06
2022-09-11T02:20:28.889Z,1015.08
2022-09-11T02:21:28.869Z,1015.04
2022-09-11T02:22:28.848Z,1015.10
2022-09-11T02:23:28.846Z,1015.10
2022-09-11T02:24:28.843Z,1015.07
2022-09-11T02:25:28.809Z,1015.12
2022-09-11T02:26:28.806Z,1015.08
2022-09-11T02:27:28.752Z,1015.07
2022-09-11T02:28:28.798Z,1015.10
2022-09-11T02:29:28.741Z,1015.06
2022-09-11T02:30:28.763Z,1015.10
2022-09-11T02:31:28.777Z,1015.08
2022-09-11T02:32:28.725Z,1015.05
2022-09-11T02:33:28.693Z,1015.07
2022-09-11T02:34:28.678Z,1015.09
2022-09-11T02:35:28.677Z,1015.11
2022-09-11T02:36:28.688Z,1015.08
2022-09-11T02:37:28.639Z,1015.05
2022-09-11T02:38:28.620Z,1015.02
2022-09-11T02:39:28.613Z,1015.04
2022-09-11T02:40:28.610Z,1015.04
2022-09-11T02:41:28.568Z,1015.09
2022-09-11T02:42:28.615Z,1015.07
2022-09-11T02:43:28.570Z,1015.10
2022-09-11T02:44:28.539Z,1015.07
2022-09-11T02:45:28.577Z,1015.06
2022-09-11T02:46:28.553Z,1015.06
2022-09-11T02:47:28.503Z,1015.07
2022-09-11T02:48:28.483Z,1015.09
2022-09-11T02:49:28.479Z,1015.07
2022-09-11T02:50:28.461Z,1015.08
2022-09-11T02:51:28.465Z,1015.10
2022-09-11T02:52:28.464Z,1015.15
2022-09-11T02:53:28.409Z,1015.14
2022-09-11T02:54:28.413Z,1015.14
2022-09-11T02:55:28.402Z,1015.11
2022-09-11T02:56:28.387Z,1015.12
2022-09-11T02:57:28.377Z,1015.13
2022-09-11T02:58:28.378Z,1015.12
2022-09-11T02:59:28.346Z,1015.12
2022-09-11T03:00:28.334Z,1015.12
2022-09-11T03:01:28.371Z,1015.16
2022-09-11T03:02:28.339Z,1015.18
2022-09-11T03:03:28.297Z,1015.25
2022-09-11T03:04:28.298Z,1015.22
2022-09-11T03:05:28.268Z,1015.26
2022-09-11T03:06:28.259Z,1015.28
2022-09-11T03:07:28.227Z,1015.29
2022-09-11T03:08:28.267Z,1015.30
2022-09-11T03:09:28.209Z,1015.30
2022-09-11T03:10:28.209Z,1015.30
2022-09-11T03:11:28.181Z,1015.33
2022-09-11T03:12:28.202Z,1015.32
2022-09-11T03:13:28.172Z,1015.33
2022-09-11T03:14:28.144Z,1015.41
2022-09-11T03:15:28.127Z,1015.37
2022-09-11T03:16:28.182Z,1015.41
2022-09-11T03:17:28.130Z,1015.43
2022-09-11T03:18:28.092Z,1015.41
2022-09-11T03:19:28.109Z,1015.39
2022-09-11T03:20:28.069Z,1015.42
2022-09-11T03:21:28.048Z,1015.41
2022-09-11T03:22:28.086Z,1015.42
2022-09-11T03:23:28.006Z,1015.40
2022-09-11T03:24:28.013Z,1015.42
2022-09-11T03:25:28.004Z,1015.36
2022-09-11T03:26:27.972Z,1015.40
2022-09-11T03:27:27.960Z,1015.39
2022-09-11T03:28:27.967Z,1015.39
2022-09-11T03:29:27.968Z,1015.40
2022-09-11T03:30:27.947Z,1015.40
2022-09-11T03:31:27.943Z,1015.42
2022-09-11T03:32:27.917Z,1015.43
2022-09-11T03:33:27.883Z,1015.52
2022-09-11T03:34:27.885Z,1015.49
2022-09-11T03:35:27.885Z,1015.56
2022-09-11T03:36:27.843Z,1015.53
2022-09-11T03:37:27.830Z,1015.57
2022-09-11T03:38:27.818Z,1015.59
2022-09-11T03:39:27.807Z,1015.59
2022-09-11T03:40:27.811Z,1015.60
2022-09-11T03:41:27.788Z,1015.58
2022-09-11T03:42:27.755Z,1015.61
2022-09-11T03:43:27.736Z,1015.54
2022-09-11T03:44:27.727Z,1015.61
2022-09-11T03:45:27.770Z,1015.56
2022-09-11T03:46:27.751Z,1015.57
2022-09-11T03:47:27.672Z,1015.54
2022-09-11T03:48:27.698Z,1015.55
2022-09-11T03:49:27.681Z,1015.58
2022-09-11T03:50:27.658Z,1015.62
2022-09-11T03:51:27.651Z,1015.60
2022-09-11T03:52:27.800Z,1015.63
2022-09-11T03:53:27.613Z,1015.61
2022-09-11T03:54:27.603Z,1015.67
2022-09-11T03:55:27.568Z,1015.67
2022-09-11T03:56:27.602Z,1015.71
2022-09-11T03:57:27.555Z,1015.66
2022-09-11T03:58:27.560Z,1015.69
2022-09-11T03:59:27.531Z,1015.68
2022-09-11T04:00:27.527Z,1015.73
2022-09-11T04:01:27.492Z,1015.67
2022-09-11T04:02:27.537Z,1015.70
2022-09-11T04:03:27.472Z,1015.73
2022-09-11T04:04:27.471Z,1015.74
2022-09-11T04:05:27.484Z,1015.73
2022-09-11T04:06:27.430Z,1015.73
2022-09-11T04:07:27.430Z,1015.73
2022-09-11T04:08:27.416Z,1015.76
2022-09-11T04:09:27.405Z,1015.76
2022-09-11T04:10:27.398Z,1015.74
2022-09-11T04:11:27.380Z,1015.78
2022-09-11T04:12:27.367Z,1015.75
2022-09-11T04:13:27.341Z,1015.80
2022-09-11T04:14:27.325Z,1015.81
2022-09-11T04:15:27.305Z,1015.80
2022-09-11T04:16:27.329Z,1015.81
2022-09-11T04:17:27.312Z,1015.81
2022-09-11T04:18:27.307Z,1015.82
2022-09-11T04:19:27.264Z,1015.85
2022-09-11T04:20:27.263Z,1015.84
2022-09-11T04:21:27.221Z,1015.87
2022-09-11T04:22:27.232Z,1015.86
2022-09-11T04:23:27.242Z,1015.83
2022-09-11T04:24:27.205Z,1015.83
2022-09-11T04:25:27.194Z,1015.81
2022-09-11T04:26:27.193Z,1015.81
2022-09-11T04:27:27.164Z,1015.82
2022-09-11T04:28:27.138Z,1015.80
2022-09-11T04:29:27.150Z,1015.81
2022-09-11T04:30:28.086Z,1015.81
2022-09-11T04:31:27.293Z,1015.79
2022-09-11T04:32:27.115Z,1015.80
2022-09-11T04:33:27.093Z,1015.83
2022-09-11T04:34:27.080Z,1015.79
2022-09-11T04:35:27.059Z,1015.83
2022-09-11T04:36:27.150Z,1015.85
2022-09-11T04:37:27.049Z,1015.84
2022-09-11T04:38:27.014Z,1015.82
2022-09-11T04:39:27.007Z,1015.85
2022-09-11T04:40:27.006Z,1015.86
2022-09-11T04:41:26.985Z,1015.85
2022-09-11T04:42:26.998Z,1015.81
2022-09-11T04:43:26.941Z,1015.83
2022-09-11T04:44:26.940Z,1015.85
2022-09-11T04:45:26.922Z,1015.85
2022-09-11T04:46:26.909Z,1015.84
2022-09-11T04:47:26.879Z,1015.84
2022-09-11T04:48:26.898Z,1015.80
2022-09-11T04:49:26.865Z,1015.83
2022-09-11T04:50:26.877Z,1015.87
2022-09-11T04:51:28.943Z,1015.88
2022-09-11T04:52:26.837Z,1015.87
2022-09-11T04:53:26.807Z,1015.87
2022-09-11T04:54:26.801Z,1015.88
2022-09-11T04:55:26.774Z,1015.92
2022-09-11T04:56:26.785Z,1015.90
2022-09-11T04:57:26.754Z,1015.95
2022-09-11T04:58:26.724Z,1015.95
2022-09-11T04:59:26.732Z,1015.94
2022-09-11T05:00:26.735Z,1015.95
2022-09-11T05:01:26.704Z,1015.97
2022-09-11T05:02:26.757Z,1015.95
2022-09-11T05:03:26.739Z,1015.96
2022-09-11T05:04:26.744Z,1016.00
2022-09-11T05:05:26.641Z,1015.98
2022-09-11T05:06:26.670Z,1016.00
2022-09-11T05:07:26.635Z,1016.01
2022-09-11T05:08:27.565Z,1016.02
2022-09-11T05:09:26.596Z,1016.01
2022-09-11T05:10:26.585Z,1016.02
2022-09-11T05:11:26.569Z,1016.01
2022-09-11T05:12:26.580Z,1016.00
2022-09-11T05:13:26.561Z,1016.00
2022-09-11T05:14:26.535Z,1016.06
2022-09-11T05:15:26.520Z,1016.06
2022-09-11T05:16:26.511Z,1016.06
2022-09-11T05:17:26.486Z,1016.08
2022-09-11T05:18:26.508Z,1016.09
2022-09-11T05:19:26.505Z,1016.08
2022-09-11T05:20:26.445Z,1016.07
2022-09-11T05:21:26.449Z,1016.08
2022-09-11T05:22:26.447Z,1016.12
2022-09-11T05:23:26.397Z,1016.10
2022-09-11T05:24:26.413Z,1016.11
2022-09-11T05:25:26.376Z,1016.18
2022-09-11T05:26:26.352Z,1016.14
2022-09-11T05:27:26.343Z,1016.19
2022-09-11T05:28:26.361Z,1016.18
2022-09-11T05:29:30.386Z,1016.18
2022-09-11T05:30:27.342Z,1016.21
2022-09-11T05:31:26.353Z,1016.24
2022-09-11T05:32:26.325Z,1016.27
2022-09-11T05:33:26.294Z,1016.28
2022-09-11T05:34:26.282Z,1016.31
2022-09-11T05:35:29.259Z,1016.35
2022-09-11T05:36:27.239Z,1016.36
2022-09-11T05:37:26.243Z,1016.34
2022-09-11T05:38:26.279Z,1016.33
2022-09-11T05:39:26.198Z,1016.39
2022-09-11T05:40:26.204Z,1016.36
2022-09-11T05:41:33.678Z,1016.38
2022-09-11T05:42:26.149Z,1016.36
2022-09-11T05:43:26.126Z,1016.36
2022-09-11T05:44:26.112Z,1016.39
2022-09-11T05:45:26.179Z,1016.39
2022-09-11T05:46:26.105Z,1016.43
2022-09-11T05:47:26.067Z,1016.42
2022-09-11T05:48:26.070Z,1016.46
2022-09-11T05:49:26.070Z,1016.49
2022-09-11T05:50:26.031Z,1016.46
2022-09-11T05:51:26.053Z,1016.48
2022-09-11T05:52:26.034Z,1016.47
2022-09-11T05:53:25.996Z,1016.53
2022-09-11T05:54:26.002Z,1016.51
2022-09-11T05:55:25.980Z,1016.52
2022-09-11T05:56:25.964Z,1016.50
2022-09-11T05:57:25.943Z,1016.53
2022-09-11T05:58:26.010Z,1016.54
2022-09-11T05:59:25.914Z,1016.55
2022-09-11T06:00:25.924Z,1016.56
2022-09-11T06:01:25.954Z,1016.52
2022-09-11T06:02:25.932Z,1016.55
2022-09-11T06:03:25.865Z,1016.55
2022-09-11T06:04:25.842Z,1016.55
2022-09-11T06:05:25.849Z,1016.57
2022-09-11T06:06:25.820Z,1016.58
2022-09-11T06:07:25.817Z,1016.60
2022-09-11T06:08:25.797Z,1016.59
2022-09-11T06:09:25.780Z,1016.63
2022-09-11T06:10:25.767Z,1016.67
2022-09-11T06:11:25.776Z,1016.70
2022-09-11T06:12:25.738Z,1016.71
2022-09-11T06:13:25.731Z,1016.73
2022-09-11T06:14:25.716Z,1016.74
2022-09-11T06:15:45.616Z,1016.77
2022-09-11T06:16:26.761Z,1016.77
2022-09-11T06:17:25.699Z,1016.79
2022-09-11T06:18:25.658Z,1016.79
2022-09-11T06:19:25.649Z,1016.81
2022-09-11T06:20:25.627Z,1016.81
2022-09-11T06:21:25.629Z,1016.79
2022-09-11T06:22:25.630Z,1016.81
2022-09-11T06:23:25.642Z,1016.83
2022-09-11T06:24:25.590Z,1016.84
2022-09-11T06:25:25.566Z,1016.82
2022-09-11T06:26:25.563Z,1016.81
2022-09-11T06:27:25.542Z,1016.79
2022-09-11T06:28:25.520Z,1016.81
2022-09-11T06:29:25.532Z,1016.79
2022-09-11T06:30:25.601Z,1016.80
2022-09-11T06:31:25.590Z,1016.80
2022-09-11T06:32:25.477Z,1016.81
2022-09-11T06:33:25.472Z,1016.80
2022-09-11T06:34:25.525Z,1016.78
2022-09-11T06:35:25.466Z,1016.79
2022-09-11T06:36:25.421Z,1016.74
2022-09-11T06:37:25.407Z,1016.76
2022-09-11T06:38:25.397Z,1016.77
2022-09-11T06:39:25.433Z,1016.74
2022-09-11T06:40:25.412Z,1016.80
2022-09-11T06:41:25.355Z,1016.79
2022-09-11T06:42:25.328Z,1016.80
2022-09-11T06:43:25.334Z,1016.82
2022-09-11T06:44:25.309Z,1016.79
2022-09-11T06:45:25.340Z,1016.85
2022-09-11T06:46:25.300Z,1016.85
2022-09-11T06:47:25.279Z,1016.86
2022-09-11T06:48:25.250Z,1016.86
2022-09-11T06:49:25.251Z,1016.86
2022-09-11T06:50:25.309Z,1016.83
2022-09-11T06:51:25.222Z,1016.84
2022-09-11T06:52:25.229Z,1016.79
2022-09-11T06:53:25.184Z,1016.76
2022-09-11T06:54:25.181Z,1016.79
2022-09-11T06:55:25.161Z,1016.78
2022-09-11T06:56:25.187Z,1016.77
2022-09-11T06:57:25.133Z,1016.77
2022-09-11T06:58:25.199Z,1016.80
2022-09-11T06:59:25.114Z,1016.81
2022-09-11T07:00:25.101Z,1016.80
2022-09-11T07:01:25.238Z,1016.82
2022-09-11T07:02:25.090Z,1016.86
2022-09-11T07:03:25.060Z,1016.83
2022-09-11T07:04:25.070Z,1016.84
2022-09-11T07:05:25.036Z,1016.81
2022-09-11T07:06:25.025Z,1016.83
2022-09-11T07:07:25.027Z,1016.87
2022-09-11T07:08:25.230Z,1016.80
2022-09-11T07:09:25.009Z,1016.83
2022-09-11T07:10:24.957Z,1016.86
2022-09-11T07:11:24.982Z,1016.87
2022-09-11T07:12:24.939Z,1016.85
2022-09-11T07:13:24.946Z,1016.92
2022-09-11T07:14:24.908Z,1016.88
2022-09-11T07:15:24.917Z,1016.90
2022-09-11T07:16:24.912Z,1016.88
2022-09-11T07:17:24.966Z,1016.89
2022-09-11T07:18:24.877Z,1016.92
2022-09-11T07:19:24.885Z,1016.90
2022-09-11T07:20:24.842Z,1016.89
2022-09-11T07:21:24.811Z,1016.91
2022-09-11T07:22:24.796Z,1016.90
2022-09-11T07:23:24.789Z,1016.91
2022-09-11T07:24:24.789Z,1016.92
2022-09-11T07:25:24.775Z,1016.93
2022-09-11T07:26:24.765Z,1016.96
2022-09-11T07:27:24.735Z,1016.96
2022-09-11T07:28:24.714Z,1016.97
2022-09-11T07:29:24.728Z,1016.97
2022-09-11T07:30:24.737Z,1017.04
2022-09-11T07:31:24.715Z,1017.03
2022-09-11T07:32:24.657Z,1017.02
2022-09-11T07:33:24.673Z,1017.05
2022-09-11T07:34:24.642Z,1017.06
2022-09-11T07:35:24.626Z,1017.03
2022-09-11T07:36:24.612Z,1017.00
2022-09-11T07:37:24.616Z,1017.01
2022-09-11T07:38:24.590Z,1017.05
2022-09-11T07:39:24.583Z,1017.02
2022-09-11T07:40:24.587Z,1017.04
2022-09-11T07:41:24.558Z,1017.09
2022-09-11T07:42:24.557Z,1017.07
2022-09-11T07:43:24.529Z,1017.08
2022-09-11T07:44:24.518Z,1017.04
2022-09-11T07:45:24.725Z,1017.05
2022-09-11T07:46:24.628Z,1017.09
2022-09-11T07:47:24.494Z,1017.07
2022-09-11T07:48:24.503Z,1017.11
2022-09-11T07:49:24.482Z,1017.12
2022-09-11T07:50:24.443Z,1017.10
2022-09-11T07:51:24.522Z,1017.14
2022-09-11T07:52:24.722Z,1017.14
2022-09-11T07:53:24.412Z,1017.19
2022-09-11T07:54:24.408Z,1017.14
2022-09-11T07:55:24.392Z,1017.17
2022-09-11T07:56:24.357Z,1017.17
2022-09-11T07:57:24.351Z,1017.19
2022-09-11T07:58:24.352Z,1017.23
2022-09-11T07:59:24.332Z,1017.23
2022-09-11T08:00:24.313Z,1017.22
2022-09-11T08:01:24.373Z,1017.22
2022-09-11T08:02:24.302Z,1017.25
2022-09-11T08:03:24.256Z,1017.24
2022-09-11T08:04:24.251Z,1017.30
2022-09-11T08:05:24.235Z,1017.30
2022-09-11T08:06:24.227Z,1017.32
2022-09-11T08:07:24.206Z,1017.31
2022-09-11T08:08:24.212Z,1017.36
2022-09-11T08:09:24.194Z,1017.39
2022-09-11T08:10:27.681Z,1017.38
2022-09-11T08:11:24.154Z,1017.44
2022-09-11T08:12:24.158Z,1017.39
2022-09-11T08:13:24.118Z,1017.41
2022-09-11T08:14:24.118Z,1017.46
2022-09-11T08:15:24.088Z,1017.45
2022-09-11T08:16:24.096Z,1017.46
2022-09-11T08:17:24.065Z,1017.45
2022-09-11T08:18:24.045Z,1017.48
2022-09-11T08:19:24.106Z,1017.47
2022-09-11T08:20:24.060Z,1017.48
2022-09-11T08:21:24.010Z,1017.50
2022-09-11T08:22:24.116Z,1017.48
2022-09-11T08:23:23.998Z,1017.53
2022-09-11T08:24:24.183Z,1017.52
2022-09-11T08:25:23.953Z,1017.54
2022-09-11T08:26:24.018Z,1017.59
2022-09-11T08:27:23.939Z,1017.57
2022-09-11T08:28:23.955Z,1017.56
2022-09-11T08:29:24.036Z,1017.60
2022-09-11T08:30:23.894Z,1017.58
2022-09-11T08:31:23.920Z,1017.57
2022-09-11T08:32:23.906Z,1017.62
2022-09-11T08:33:23.842Z,1017.63
2022-09-11T08:34:23.829Z,1017.64
2022-09-11T08:35:23.825Z,1017.64
2022-09-11T08:36:23.892Z,1017.66
2022-09-11T08:37:23.807Z,1017.64
2022-09-11T08:38:23.780Z,1017.69
2022-09-11T08:39:23.765Z,1017.72
2022-09-11T08:40:23.748Z,1017.70
2022-09-11T08:41:24.027Z,1017.69
2022-09-11T08:42:23.748Z,1017.72
2022-09-11T08:43:23.722Z,1017.74
2022-09-11T08:44:23.731Z,1017.76
2022-09-11T08:45:23.757Z,1017.75
2022-09-11T08:46:23.655Z,1017.80
2022-09-11T08:47:23.710Z,1017.85
2022-09-11T08:48:23.783Z,1017.85
2022-09-11T08:49:23.662Z,1017.82
2022-09-11T08:50:23.610Z,1017.84
2022-09-11T08:51:23.609Z,1017.84
2022-09-11T08:52:23.592Z,1017.87
2022-09-11T08:53:23.602Z,1017.89
2022-09-11T08:54:23.575Z,1017.94
2022-09-11T08:55:23.553Z,1017.96
2022-09-11T08:56:23.546Z,1017.96
2022-09-11T08:57:23.533Z,1017.93
2022-09-11T08:58:23.543Z,1017.96
2022-09-11T08:59:23.508Z,1017.99
2022-09-11T09:00:23.567Z,1017.93
2022-09-11T09:01:24.130Z,1017.94
2022-09-11T09:02:23.485Z,1017.98
2022-09-11T09:03:23.462Z,1017.97
2022-09-11T09:04:23.458Z,1018.01
2022-09-11T09:05:23.427Z,1017.98
2022-09-11T09:06:23.405Z,1018.01
2022-09-11T09:07:23.391Z,1018.00
2022-09-11T09:08:23.406Z,1017.97
2022-09-11T09:09:23.438Z,1018.04
2022-09-11T09:10:23.341Z,1018.02
2022-09-11T09:11:23.329Z,1018.05
2022-09-11T09:12:23.335Z,1018.02
2022-09-11T09:13:23.321Z,1018.03
2022-09-11T09:14:23.342Z,1018.06
2022-09-11T09:15:26.242Z,1018.03
2022-09-11T09:16:24.280Z,1018.02
2022-09-11T09:17:23.267Z,1018.02
2022-09-11T09:18:23.251Z,1018.04
2022-09-11T09:19:23.251Z,1018.01
2022-09-11T09:20:23.255Z,1018.05
2022-09-11T09:21:23.211Z,1018.00
2022-09-11T09:22:23.199Z,1018.03
2022-09-11T09:23:23.182Z,1018.01
2022-09-11T09:24:23.844Z,1017.96
2022-09-11T09:25:23.174Z,1017.97
2022-09-11T09:26:23.150Z,1017.96
2022-09-11T09:27:23.150Z,1017.99
2022-09-11T09:28:23.140Z,1017.99
2022-09-11T09:29:23.092Z,1017.99
2022-09-11T09:30:23.084Z,1017.99
2022-09-11T09:31:23.147Z,1017.98
2022-09-11T09:32:23.068Z,1018.03
2022-09-11T09:33:23.059Z,1018.04
2022-09-11T09:34:23.023Z,1018.10
2022-09-11T09:35:23.024Z,1018.05
2022-09-11T09:36:23.011Z,1018.08
2022-09-11T09:37:22.992Z,1018.06
2022-09-11T09:38:26.893Z,1018.05
2022-09-11T09:39:22.970Z,1018.04
2022-09-11T09:40:22.988Z,1018.06
2022-09-11T09:41:22.960Z,1018.05
2022-09-11T09:42:22.932Z,1018.03
2022-09-11T09:43:22.902Z,1018.04
2022-09-11T09:44:22.903Z,1018.07
2022-09-11T09:45:22.882Z,1018.06
2022-09-11T09:46:22.872Z,1018.05
2022-09-11T09:47:22.881Z,1018.05
2022-09-11T09:48:22.862Z,1018.06
2022-09-11T09:49:22.866Z,1018.05
2022-09-11T09:50:22.817Z,1018.08
2022-09-11T09:51:22.804Z,1018.07
2022-09-11T09:52:22.824Z,1018.06
2022-09-11T09:53:22.811Z,1018.08
2022-09-11T09:54:22.752Z,1018.10
2022-09-11T09:55:22.752Z,1018.11
2022-09-11T09:56:22.739Z,1018.12
2022-09-11T09:57:22.756Z,1018.15
2022-09-11T09:58:22.714Z,1018.16
2022-09-11T09:59:22.720Z,1018.18
2022-09-11T10:00:22.967Z,1018.18
2022-09-11T10:01:22.796Z,1018.15
2022-09-11T10:02:22.694Z,1018.21
2022-09-11T10:03:22.660Z,1018.17
2022-09-11T10:04:22.640Z,1018.13
2022-09-11T10:05:22.888Z,1018.12
2022-09-11T10:06:22.717Z,1018.12
2022-09-11T10:07:22.608Z,1018.11
2022-09-11T10:08:22.581Z,1018.12
2022-09-11T10:09:22.554Z,1018.09
2022-09-11T10:10:22.581Z,1018.12
2022-09-11T10:11:22.540Z,1018.19
2022-09-11T10:12:22.540Z,1018.18
2022-09-11T10:13:22.515Z,1018.18
2022-09-11T10:14:47.201Z,1018.19
2022-09-11T10:15:23.517Z,1018.21
2022-09-11T10:16:22.548Z,1018.21
2022-09-11T10:17:22.467Z,1018.21
2022-09-11T10:18:22.437Z,1018.20
2022-09-11T10:19:22.435Z,1018.20
2022-09-11T10:20:22.446Z,1018.18
2022-09-11T10:21:22.435Z,1018.14
2022-09-11T10:22:22.390Z,1018.17
2022-09-11T10:23:22.369Z,1018.14
2022-09-11T10:24:22.377Z,1018.13
2022-09-11T10:25:22.338Z,1018.12
2022-09-11T10:26:22.340Z,1018.12
2022-09-11T10:27:23.660Z,1018.15
2022-09-11T10:28:22.349Z,1018.10
2022-09-11T10:29:22.291Z,1018.14
2022-09-11T10:30:22.288Z,1018.06
2022-09-11T10:31:22.341Z,1018.10
2022-09-11T10:32:22.258Z,1018.08
2022-09-11T10:33:22.270Z,1018.09
2022-09-11T10:34:22.235Z,1018.08
2022-09-11T10:35:22.214Z,1018.09
2022-09-11T10:36:22.211Z,1018.08
2022-09-11T10:37:22.192Z,1018.12
2022-09-11T10:38:22.174Z,1018.08
2022-09-11T10:39:22.183Z,1018.09
2022-09-11T10:40:22.163Z,1018.08
2022-09-11T10:41:22.198Z,1018.10
2022-09-11T10:42:22.119Z,1018.10
2022-09-11T10:43:22.120Z,1018.08
2022-09-11T10:44:22.125Z,1018.09
2022-09-11T10:45:22.105Z,1018.09
2022-09-11T10:46:22.076Z,1018.12
2022-09-11T10:47:22.065Z,1018.15
2022-09-11T10:48:22.049Z,1018.09
2022-09-11T10:49:22.037Z,1018.13
2022-09-11T10:50:22.016Z,1018.11
2022-09-11T10:51:22.002Z,1018.15
2022-09-11T10:52:21.999Z,1018.09
2022-09-11T10:53:21.995Z,1018.10
2022-09-11T10:54:21.990Z,1018.15
2022-09-11T10:55:21.932Z,1018.15
2022-09-11T10:56:21.927Z,1018.22
2022-09-11T10:57:21.918Z,1018.22
2022-09-11T10:58:21.909Z,1018.23
2022-09-11T10:59:21.916Z,1018.23
2022-09-11T11:00:21.922Z,1018.25
2022-09-11T11:01:21.928Z,1018.22
2022-09-11T11:02:21.880Z,1018.24
2022-09-11T11:03:21.834Z,1018.27
2022-09-11T11:04:21.831Z,1018.28
2022-09-11T11:05:21.825Z,1018.26
2022-09-11T11:06:21.829Z,1018.27
2022-09-11T11:07:21.793Z,1018.25
2022-09-11T11:08:21.773Z,1018.24
2022-09-11T11:09:21.754Z,1018.20
2022-09-11T11:10:21.802Z,1018.15
2022-09-11T11:11:21.743Z,1018.14
2022-09-11T11:12:21.739Z,1018.09
2022-09-11T11:13:21.715Z,1018.09
2022-09-11T11:14:21.705Z,1018.07
2022-09-11T11:15:21.683Z,1018.05
2022-09-11T11:16:21.761Z,1018.06
2022-09-11T11:17:21.645Z,1018.07
2022-09-11T11:18:21.697Z,1018.05
2022-09-11T11:19:21.633Z,1018.07
2022-09-11T11:20:21.615Z,1018.10
2022-09-11T11:21:21.597Z,1018.09
2022-09-11T11:22:21.608Z,1018.12
2022-09-11T11:23:21.575Z,1018.10
2022-09-11T11:24:21.568Z,1018.10
2022-09-11T11:25:21.550Z,1018.16
2022-09-11T11:26:21.538Z,1018.16
2022-09-11T11:27:21.630Z,1018.18
2022-09-11T11:28:21.573Z,1018.17
2022-09-11T11:29:21.529Z,1018.14
2022-09-11T11:30:21.480Z,1018.14
2022-09-11T11:31:21.540Z,1018.12
2022-09-11T11:32:21.472Z,1018.13
2022-09-11T11:33:21.458Z,1018.07
2022-09-11T11:34:21.447Z,1018.10
2022-09-11T11:35:21.422Z,1018.10
2022-09-11T11:36:21.404Z,1018.09
2022-09-11T11:37:21.395Z,1018.11
2022-09-11T11:38:21.374Z,1018.15
2022-09-11T11:39:21.368Z,1018.15
2022-09-11T11:40:21.388Z,1018.12
2022-09-11T11:41:21.335Z,1018.13
2022-09-11T11:42:21.325Z,1018.12
2022-09-11T11:43:21.315Z,1018.10
2022-09-11T11:44:21.294Z,1018.10
2022-09-11T11:45:21.287Z,1018.07
2022-09-11T11:46:21.301Z,1018.08
2022-09-11T11:47:21.256Z,1018.07
2022-09-11T11:48:21.244Z,1018.12
2022-09-11T11:49:21.247Z,1018.11
2022-09-11T11:50:21.226Z,1018.13
2022-09-11T11:51:21.240Z,1018.11
2022-09-11T11:52:28.761Z,1018.16
2022-09-11T11:53:21.183Z,1018.12
2022-09-11T11:54:21.185Z,1018.13
2022-09-11T11:55:21.176Z,1018.14
2022-09-11T11:56:21.178Z,1018.12
2022-09-11T11:57:21.141Z,1018.15
2022-09-11T11:58:21.122Z,1018.10
2022-09-11T11:59:21.092Z,1018.11
2022-09-11T12:00:21.097Z,1018.10
2022-09-11T12:01:21.097Z,1018.11
2022-09-11T12:02:21.111Z,1018.08
2022-09-11T12:03:21.100Z,1018.10
2022-09-11T12:04:21.052Z,1018.09
2022-09-11T12:05:21.022Z,1018.08